createdAt,value
2018-03-25T00:01:58.489Z,-0.70
2018-03-25T00:04:28.497Z,-0.70
2018-03-25T00:06:57.534Z,-0.80
2018-03-25T00:09:25.559Z,-0.80
2018-03-25T00:11:56.833Z,-0.90
2018-03-25T00:14:37.865Z,-0.90
2018-03-25T00:17:12.498Z,-1.00
2018-03-25T00:19:48.242Z,-1.10
2018-03-25T00:22:34.042Z,-1.20
2018-03-25T00:25:18.490Z,-1.30
2018-03-25T00:27:52.582Z,-1.40
2018-03-25T00:30:25.218Z,-1.50
2018-03-25T00:32:54.161Z,-1.60
2018-03-25T00:35:28.145Z,-1.50
2018-03-25T00:37:59.558Z,-1.00
2018-03-25T00:40:29.602Z,-1.00
2018-03-25T00:42:58.611Z,-0.80
2018-03-25T00:45:27.642Z,-0.30
2018-03-25T00:47:59.106Z,-0.30
2018-03-25T00:50:41.997Z,-0.10
2018-03-25T00:53:10.054Z,0.10
2018-03-25T00:55:40.484Z,0.20
2018-03-25T00:58:08.509Z,0.20
2018-03-25T01:00:36.558Z,0.00
2018-03-25T01:03:04.578Z,-0.10
2018-03-25T01:05:37.194Z,-0.30
2018-03-25T01:08:17.089Z,-0.40
2018-03-25T01:10:45.917Z,-0.40
2018-03-25T01:13:15.961Z,-0.40
2018-03-25T01:15:57.057Z,-0.40
2018-03-25T01:18:29.726Z,-0.40
2018-03-25T01:20:58.685Z,-0.50
2018-03-25T01:23:27.425Z,-0.50
2018-03-25T01:25:58.162Z,-0.70
2018-03-25T01:28:27.193Z,-0.70
2018-03-25T01:30:55.549Z,-0.70
2018-03-25T01:33:34.495Z,-0.80
2018-03-25T01:36:06.550Z,-0.90
2018-03-25T01:38:41.241Z,-0.80
2018-03-25T01:41:14.858Z,-0.90
2018-03-25T01:43:44.897Z,-0.80
2018-03-25T01:49:07.549Z,-1.10
2018-03-25T01:51:41.189Z,-1.30
2018-03-25T01:54:21.794Z,-1.30
2018-03-25T01:56:49.847Z,-1.30
2018-03-25T01:59:21.145Z,-1.30
2018-03-25T02:01:49.133Z,-1.40
2018-03-25T02:04:19.329Z,-1.40
2018-03-25T02:06:51.806Z,-1.50
2018-03-25T02:09:23.418Z,-1.60
2018-03-25T02:11:56.229Z,-1.60
2018-03-25T02:14:26.068Z,-1.80
2018-03-25T02:16:59.425Z,-1.80
2018-03-25T02:19:27.591Z,-1.90
2018-03-25T02:21:56.649Z,-2.00
2018-03-25T02:24:29.290Z,-2.00
2018-03-25T02:26:59.557Z,-2.20
2018-03-25T02:39:47.743Z,-2.40
2018-03-25T02:42:16.699Z,-2.50
2018-03-25T02:44:48.856Z,-2.60
2018-03-25T02:47:22.413Z,-2.70
2018-03-25T02:49:52.895Z,-2.70
2018-03-25T02:54:57.074Z,-2.60
2018-03-25T02:57:27.603Z,-2.60
2018-03-25T03:00:20.158Z,-2.60
2018-03-25T03:02:50.145Z,-2.60
2018-03-25T03:10:31.453Z,-2.80
2018-03-25T03:31:12.334Z,-1.20
2018-03-25T03:36:20.579Z,-1.10
2018-03-25T03:38:51.356Z,-1.20
2018-03-25T03:44:01.685Z,-1.30
2018-03-25T03:46:35.665Z,-1.40
2018-03-25T03:49:07.333Z,-1.40
2018-03-25T03:51:48.440Z,-1.40
2018-03-25T03:59:41.753Z,-1.40
2018-03-25T04:02:15.805Z,-1.30
2018-03-25T04:04:47.829Z,-1.30
2018-03-25T04:09:59.149Z,-1.10
2018-03-25T04:12:27.920Z,-1.10
2018-03-25T04:14:57.945Z,-1.10
2018-03-25T04:17:26.337Z,-1.20
2018-03-25T04:19:56.737Z,-1.30
2018-03-25T04:22:32.393Z,-1.40
2018-03-25T04:25:02.421Z,-1.40
2018-03-25T04:27:32.701Z,-1.40
2018-03-25T04:30:06.725Z,-1.30
2018-03-25T04:32:39.229Z,-1.30
2018-03-25T04:35:17.685Z,-1.30
2018-03-25T04:37:55.265Z,-1.20
2018-03-25T04:40:24.517Z,-1.10
2018-03-25T04:43:16.660Z,-0.90
2018-03-25T04:45:45.745Z,-1.00
2018-03-25T04:48:14.693Z,-0.80
2018-03-25T04:50:52.693Z,-0.80
2018-03-25T04:53:24.748Z,-0.80
2018-03-25T04:55:57.966Z,-0.80
2018-03-25T04:58:29.783Z,-0.90
2018-03-25T05:00:57.856Z,-1.00
2018-03-25T05:03:26.836Z,-1.00
2018-03-25T05:05:56.864Z,-1.00
2018-03-25T05:08:26.155Z,-1.10
2018-03-25T05:10:56.213Z,-1.20
2018-03-25T05:13:24.240Z,-1.30
2018-03-25T05:15:57.720Z,-1.40
2018-03-25T05:18:39.535Z,-1.50
2018-03-25T05:21:14.241Z,-1.50
2018-03-25T05:23:47.308Z,-1.40
2018-03-25T05:26:21.944Z,-1.50
2018-03-25T05:28:53.772Z,-1.60
2018-03-25T05:31:26.485Z,-1.70
2018-03-25T05:34:01.156Z,-1.70
2018-03-25T05:36:30.184Z,-1.70
2018-03-25T05:38:58.224Z,-1.60
2018-03-25T05:41:28.261Z,-1.50
2018-03-25T05:43:57.256Z,-1.30
2018-03-25T05:46:26.272Z,-1.30
2018-03-25T05:49:00.352Z,-1.10
2018-03-25T05:51:30.372Z,-0.70
2018-03-25T05:53:59.406Z,-0.30
2018-03-25T05:56:34.672Z,0.00
2018-03-25T05:59:05.865Z,0.10
2018-03-25T06:01:33.880Z,0.20
2018-03-25T06:04:07.420Z,0.30
2018-03-25T06:06:35.448Z,0.40
2018-03-25T06:09:06.535Z,0.60
2018-03-25T06:11:34.560Z,0.60
2018-03-25T06:14:04.520Z,0.70
2018-03-25T06:16:34.544Z,0.70
2018-03-25T06:19:02.565Z,0.80
2018-03-25T06:21:31.588Z,0.90
2018-03-25T06:24:03.344Z,1.00
2018-03-25T06:26:31.368Z,1.10
2018-03-25T06:29:01.343Z,1.30
2018-03-25T06:31:29.372Z,1.60
2018-03-25T06:33:58.412Z,2.00
2018-03-25T06:36:26.482Z,2.50
2018-03-25T06:38:54.508Z,3.00
2018-03-25T06:41:22.571Z,3.40
2018-03-25T06:43:50.606Z,3.80
2018-03-25T06:46:19.395Z,4.50
2018-03-25T06:48:48.364Z,4.50
2018-03-25T06:51:17.351Z,4.70
2018-03-25T06:53:45.380Z,4.90
2018-03-25T06:56:13.416Z,5.20
2018-03-25T06:58:42.212Z,5.50
2018-03-25T07:01:11.172Z,5.40
2018-03-25T07:03:40.152Z,5.50
2018-03-25T07:06:09.168Z,5.70
2018-03-25T07:08:38.204Z,5.80
2018-03-25T07:11:07.887Z,5.30
2018-03-25T07:13:37.867Z,5.30
2018-03-25T07:16:05.899Z,4.80
2018-03-25T07:18:33.943Z,4.30
2018-03-25T07:21:02.729Z,4.00
2018-03-25T07:23:32.524Z,4.00
2018-03-25T07:26:01.324Z,4.00
2018-03-25T07:28:33.464Z,4.00
2018-03-25T07:31:01.476Z,4.00
2018-03-25T07:33:29.488Z,4.10
2018-03-25T07:35:57.563Z,4.10
2018-03-25T07:38:25.576Z,4.30
2018-03-25T07:40:57.499Z,4.40
2018-03-25T07:43:36.219Z,4.40
2018-03-25T07:46:25.335Z,4.50
2018-03-25T07:49:05.811Z,4.60
2018-03-25T07:51:35.772Z,4.60
2018-03-25T07:54:08.711Z,4.70
2018-03-25T07:56:56.027Z,4.70
2018-03-25T07:59:31.995Z,4.80
2018-03-25T08:02:04.975Z,5.30
2018-03-25T08:04:40.823Z,6.60
2018-03-25T08:10:13.732Z,9.10
2018-03-25T08:12:46.859Z,9.10
2018-03-25T08:15:18.708Z,9.10
2018-03-25T08:17:55.364Z,9.60
2018-03-25T08:20:29.331Z,10.20
2018-03-25T08:22:59.327Z,10.30
2018-03-25T08:25:28.134Z,10.50
2018-03-25T08:27:59.930Z,10.40
2018-03-25T08:30:33.451Z,10.70
2018-03-25T08:33:10.023Z,10.00
2018-03-25T08:35:42.195Z,9.20
2018-03-25T08:38:16.107Z,9.50
2018-03-25T08:40:58.155Z,10.50
2018-03-25T08:43:32.996Z,11.00
2018-03-25T08:46:01.015Z,11.30
2018-03-25T08:48:29.791Z,12.30
2018-03-25T08:51:07.572Z,12.30
2018-03-25T08:53:48.171Z,13.60
2018-03-25T08:56:35.703Z,14.30
2018-03-25T09:02:02.116Z,14.70
2018-03-25T09:04:36.099Z,13.80
2018-03-25T09:07:04.141Z,13.70
2018-03-25T09:09:39.431Z,15.60
2018-03-25T09:12:17.402Z,15.50
2018-03-25T09:14:52.135Z,15.50
2018-03-25T09:17:28.195Z,15.30
2018-03-25T09:20:12.747Z,14.90
2018-03-25T09:22:46.798Z,15.00
2018-03-25T09:25:15.815Z,15.70
2018-03-25T09:27:50.607Z,16.20
2018-03-25T09:30:23.015Z,16.80
2018-03-25T09:32:55.251Z,17.20
2018-03-25T09:35:29.666Z,17.20
2018-03-25T09:38:02.759Z,16.20
2018-03-25T09:40:40.426Z,16.90
2018-03-25T09:46:02.324Z,17.70
2018-03-25T09:48:37.706Z,17.70
2018-03-25T09:51:06.634Z,16.30
2018-03-25T09:53:41.507Z,16.00
2018-03-25T09:56:17.192Z,16.40
2018-03-25T09:58:49.172Z,16.20
2018-03-25T10:01:23.290Z,16.90
2018-03-25T10:03:57.270Z,17.90
2018-03-25T10:06:25.303Z,19.00
2018-03-25T10:09:00.506Z,18.10
2018-03-25T10:11:28.564Z,18.10
2018-03-25T10:14:00.951Z,18.90
2018-03-25T10:16:35.746Z,19.30
2018-03-25T10:19:05.854Z,19.00
2018-03-25T10:21:42.234Z,18.10
2018-03-25T10:24:10.463Z,19.30
2018-03-25T10:26:59.514Z,19.40
2018-03-25T10:29:27.498Z,19.40
2018-03-25T10:31:56.282Z,19.70
2018-03-25T10:34:30.702Z,19.20
2018-03-25T10:37:04.476Z,18.70
2018-03-25T10:39:47.630Z,18.70
2018-03-25T10:42:18.318Z,19.10
2018-03-25T10:44:54.662Z,19.10
2018-03-25T10:47:26.146Z,20.60
2018-03-25T10:49:54.154Z,20.00
2018-03-25T10:55:18.734Z,20.50
2018-03-25T10:57:46.752Z,20.50
2018-03-25T11:00:32.413Z,20.90
2018-03-25T11:03:11.374Z,17.50
2018-03-25T11:05:46.318Z,17.50
2018-03-25T11:08:16.246Z,15.90
2018-03-25T11:10:54.934Z,16.40
2018-03-25T11:13:30.614Z,16.70
2018-03-25T11:15:59.605Z,17.20
2018-03-25T11:18:33.422Z,18.20
2018-03-25T11:21:08.866Z,19.10
2018-03-25T11:23:36.885Z,19.30
2018-03-25T11:26:05.833Z,19.70
2018-03-25T11:28:35.693Z,19.80
2018-03-25T11:31:09.974Z,18.50
2018-03-25T11:33:49.698Z,18.00
2018-03-25T11:36:23.389Z,16.70
2018-03-25T11:38:54.554Z,17.10
2018-03-25T11:41:29.174Z,18.10
2018-03-25T11:43:57.218Z,19.20
2018-03-25T11:46:27.202Z,19.90
2018-03-25T11:49:03.502Z,21.70
2018-03-25T11:51:33.449Z,21.60
2018-03-25T11:54:02.462Z,21.50
2018-03-25T11:56:32.473Z,21.40
2018-03-25T11:59:08.301Z,22.50
2018-03-25T12:01:36.305Z,21.90
2018-03-25T12:04:04.410Z,22.10
2018-03-25T12:06:40.369Z,23.40
2018-03-25T12:09:12.949Z,22.20
2018-03-25T12:11:44.577Z,20.90
2018-03-25T12:14:13.542Z,22.30
2018-03-25T12:16:47.297Z,22.30
2018-03-25T12:19:21.218Z,21.80
2018-03-25T12:21:50.298Z,21.00
2018-03-25T12:24:35.237Z,22.40
2018-03-25T12:27:15.603Z,21.80
2018-03-25T12:29:47.861Z,21.00
2018-03-25T12:32:20.517Z,20.30
2018-03-25T12:34:53.185Z,19.90
2018-03-25T12:37:28.617Z,19.40
2018-03-25T12:40:06.533Z,20.70
2018-03-25T12:42:36.553Z,20.60
2018-03-25T12:45:05.357Z,19.50
2018-03-25T12:47:35.453Z,19.40
2018-03-25T12:50:07.013Z,18.50
2018-03-25T12:52:36.809Z,22.00
2018-03-25T12:55:05.857Z,22.00
2018-03-25T12:57:57.398Z,23.10
2018-03-25T13:00:26.445Z,22.30
2018-03-25T13:02:54.453Z,21.50
2018-03-25T13:05:24.417Z,21.80
2018-03-25T13:07:55.137Z,21.10
2018-03-25T13:10:28.425Z,21.00
2018-03-25T13:13:15.481Z,20.70
2018-03-25T13:15:49.519Z,20.00
2018-03-25T13:18:17.559Z,20.70
2018-03-25T13:20:47.548Z,20.90
2018-03-25T13:23:15.561Z,21.50
2018-03-25T13:25:44.629Z,21.60
2018-03-25T13:28:19.249Z,20.70
2018-03-25T13:30:59.637Z,20.70
2018-03-25T13:33:29.673Z,20.60
2018-03-25T13:36:09.021Z,21.40
2018-03-25T13:38:38.043Z,21.10
2018-03-25T13:41:06.067Z,21.30
2018-03-25T13:43:51.225Z,21.20
2018-03-25T13:46:22.421Z,20.60
2018-03-25T13:48:54.089Z,19.90
2018-03-25T13:51:26.748Z,19.00
2018-03-25T13:53:56.802Z,19.00
2018-03-25T13:56:31.113Z,19.00
2018-03-25T13:58:59.921Z,19.40
2018-03-25T14:04:04.126Z,19.20
2018-03-25T14:06:36.017Z,20.70
2018-03-25T14:09:05.760Z,21.80
2018-03-25T14:11:34.813Z,21.00
2018-03-25T14:14:21.501Z,20.90
2018-03-25T14:16:52.244Z,21.90
2018-03-25T14:19:28.324Z,21.90
2018-03-25T14:25:02.336Z,21.50
2018-03-25T14:27:36.372Z,21.10
2018-03-25T14:30:25.529Z,21.30
2018-03-25T14:32:54.572Z,21.20
2018-03-25T14:35:22.625Z,21.30
2018-03-25T14:37:58.552Z,22.00
2018-03-25T14:40:32.204Z,22.30
2018-03-25T14:43:02.028Z,21.50
2018-03-25T14:45:37.516Z,21.60
2018-03-25T14:48:05.544Z,21.60
2018-03-25T14:50:37.273Z,21.50
2018-03-25T14:53:05.316Z,21.70
2018-03-25T14:55:33.336Z,22.70
2018-03-25T14:58:05.568Z,21.80
2018-03-25T15:00:35.584Z,21.80
2018-03-25T15:03:03.628Z,21.80
2018-03-25T15:05:32.661Z,21.60
2018-03-25T15:08:00.703Z,20.40
2018-03-25T15:10:28.724Z,19.80
2018-03-25T15:12:58.508Z,19.70
2018-03-25T15:15:26.548Z,19.60
2018-03-25T15:17:54.580Z,18.80
2018-03-25T15:20:26.936Z,19.80
2018-03-25T15:22:56.733Z,19.10
2018-03-25T15:25:25.736Z,19.10
2018-03-25T15:27:53.772Z,19.40
2018-03-25T15:30:22.780Z,18.70
2018-03-25T15:32:51.768Z,19.20
2018-03-25T15:35:19.805Z,19.30
2018-03-25T15:37:54.589Z,19.30
2018-03-25T15:40:36.308Z,19.40
2018-03-25T15:43:05.256Z,19.80
2018-03-25T15:45:33.291Z,19.90
2018-03-25T15:48:02.328Z,20.20
2018-03-25T15:50:32.344Z,19.90
2018-03-25T15:53:00.380Z,19.10
2018-03-25T15:55:30.368Z,18.80
2018-03-25T15:58:01.496Z,17.60
2018-03-25T16:00:31.292Z,14.70
2018-03-25T16:02:59.324Z,14.60
2018-03-25T16:05:27.362Z,13.80
2018-03-25T16:07:56.320Z,13.20
2018-03-25T16:10:31.209Z,12.90
2018-03-25T16:13:00.242Z,12.80
2018-03-25T16:15:29.216Z,12.80
2018-03-25T16:17:57.264Z,12.60
2018-03-25T16:20:26.288Z,12.30
2018-03-25T16:22:55.285Z,12.20
2018-03-25T16:25:27.140Z,12.00
2018-03-25T16:28:07.676Z,11.80
2018-03-25T16:30:45.820Z,11.70
2018-03-25T16:33:13.856Z,11.50
2018-03-25T16:35:43.820Z,11.30
2018-03-25T16:38:14.524Z,11.00
2018-03-25T16:40:45.328Z,10.80
2018-03-25T16:43:16.504Z,10.80
2018-03-25T16:45:46.523Z,10.60
2018-03-25T16:48:18.992Z,10.40
2018-03-25T16:50:48.000Z,10.30
2018-03-25T16:53:16.028Z,10.10
2018-03-25T16:55:45.044Z,9.90
2018-03-25T16:58:14.168Z,9.80
2018-03-25T17:00:48.168Z,9.50
2018-03-25T17:03:21.952Z,9.30
2018-03-25T17:05:54.644Z,9.30
2018-03-25T17:08:37.820Z,9.10
2018-03-25T17:11:17.880Z,8.90
2018-03-25T17:13:53.216Z,8.80
2018-03-25T17:16:21.244Z,8.60
2018-03-25T17:18:54.212Z,8.20
2018-03-25T17:21:28.600Z,8.20
2018-03-25T17:27:01.810Z,8.10
2018-03-25T17:29:31.780Z,7.90
2018-03-25T17:32:09.616Z,7.80
2018-03-25T17:34:37.668Z,7.70
2018-03-25T17:37:09.484Z,7.60
2018-03-25T17:39:42.284Z,7.40
2018-03-25T17:42:32.104Z,7.00
2018-03-25T17:45:01.144Z,7.00
2018-03-25T17:47:32.592Z,6.70
2018-03-25T17:50:07.272Z,6.50
2018-03-25T17:52:38.970Z,6.40
2018-03-25T17:55:19.404Z,6.60
2018-03-25T17:57:49.500Z,6.40
2018-03-25T18:00:19.416Z,6.20
2018-03-25T18:02:52.180Z,6.10
2018-03-25T18:05:20.236Z,6.00
2018-03-25T18:07:52.715Z,6.00
2018-03-25T18:10:24.459Z,5.90
2018-03-25T18:12:55.184Z,5.80
2018-03-25T18:15:25.212Z,5.80
2018-03-25T18:17:55.012Z,5.50
2018-03-25T18:20:25.178Z,5.50
2018-03-25T18:22:54.136Z,5.40
2018-03-25T18:25:22.164Z,5.30
2018-03-25T18:27:51.200Z,5.20
2018-03-25T18:30:28.611Z,5.30
2018-03-25T18:32:57.712Z,5.30
2018-03-25T18:35:25.728Z,5.10
2018-03-25T18:37:53.780Z,5.10
2018-03-25T18:40:23.724Z,4.90
2018-03-25T18:42:53.736Z,4.80
2018-03-25T18:45:25.700Z,4.70
2018-03-25T18:47:54.710Z,4.50
2018-03-25T18:50:24.712Z,4.40
2018-03-25T18:52:53.772Z,4.20
2018-03-25T18:55:23.726Z,4.10
2018-03-25T18:57:55.892Z,3.90
2018-03-25T19:00:35.175Z,3.80
2018-03-25T19:03:06.464Z,3.60
2018-03-25T19:05:34.486Z,3.40
2018-03-25T19:08:04.467Z,3.30
2018-03-25T19:10:34.183Z,3.00
2018-03-25T19:13:07.169Z,3.00
2018-03-25T19:15:40.032Z,2.90
2018-03-25T19:18:09.020Z,2.70
2018-03-25T19:20:42.415Z,2.60
2018-03-25T19:23:12.779Z,2.50
2018-03-25T19:25:43.804Z,2.40
2018-03-25T19:28:17.392Z,2.20
2018-03-25T19:30:45.425Z,2.10
2018-03-25T19:33:13.468Z,2.00
2018-03-25T19:35:42.427Z,1.90
2018-03-25T19:38:11.228Z,1.80
2018-03-25T19:40:46.617Z,1.60
2018-03-25T19:43:15.647Z,1.60
2018-03-25T19:45:47.603Z,1.50
2018-03-25T19:48:17.636Z,1.40
2018-03-25T19:50:48.959Z,1.20
2018-03-25T19:53:22.223Z,1.20
2018-03-25T19:55:51.268Z,1.10
2018-03-25T19:58:20.062Z,1.00
2018-03-25T20:00:54.667Z,0.90
2018-03-25T20:03:25.419Z,0.90
2018-03-25T20:05:56.127Z,1.00
2018-03-25T20:08:24.147Z,0.90
2018-03-25T20:10:52.171Z,0.90
2018-03-25T20:13:24.863Z,0.90
2018-03-25T20:15:52.903Z,0.80
2018-03-25T20:18:22.823Z,0.80
2018-03-25T20:20:58.384Z,0.80
2018-03-25T20:23:27.371Z,0.80
2018-03-25T20:25:55.391Z,0.60
2018-03-25T20:28:23.423Z,0.60
2018-03-25T20:30:52.402Z,0.50
2018-03-25T20:33:21.410Z,0.60
2018-03-25T20:35:49.399Z,0.60
2018-03-25T20:38:17.435Z,0.60
2018-03-25T20:40:46.639Z,0.60
2018-03-25T20:43:28.039Z,0.60
2018-03-25T20:45:57.603Z,0.60
2018-03-25T20:48:29.176Z,0.60
2018-03-25T20:51:04.939Z,0.50
2018-03-25T20:53:45.347Z,0.30
2018-03-25T20:56:19.611Z,0.30
2018-03-25T20:58:55.835Z,0.30
2018-03-25T21:01:23.967Z,0.20
2018-03-25T21:03:52.023Z,0.00
2018-03-25T21:06:25.623Z,-0.10
2018-03-25T21:08:55.503Z,-0.10
2018-03-25T21:11:27.903Z,-0.30
2018-03-25T21:13:56.750Z,-0.50
2018-03-25T21:16:26.279Z,-0.50
2018-03-25T21:19:18.675Z,-0.40
2018-03-25T21:21:51.466Z,-0.40
2018-03-25T21:24:24.506Z,-0.30
2018-03-25T21:26:57.471Z,-0.30
2018-03-25T21:29:28.566Z,-0.40
2018-03-25T21:32:00.196Z,-0.50
2018-03-25T21:34:33.295Z,-0.50
2018-03-25T21:37:03.326Z,-0.50
2018-03-25T21:39:34.182Z,-0.50
2018-03-25T21:42:03.870Z,-0.60
2018-03-25T21:44:32.954Z,-0.60
2018-03-25T21:47:01.927Z,-0.50
2018-03-25T21:49:43.902Z,-0.60
2018-03-25T21:52:11.934Z,-0.70
2018-03-25T21:54:48.495Z,-0.80
2018-03-25T21:57:25.271Z,-0.80
2018-03-25T21:59:56.374Z,-0.90
2018-03-25T22:02:26.498Z,-0.90
2018-03-25T22:04:58.694Z,-1.00
2018-03-25T22:07:30.526Z,-1.00
2018-03-25T22:09:58.850Z,-1.00
2018-03-25T22:12:27.878Z,-1.00
2018-03-25T22:14:59.154Z,-1.00
2018-03-25T22:17:37.490Z,-1.10
2018-03-25T22:20:05.551Z,-1.10
2018-03-25T22:22:40.098Z,-1.20
2018-03-25T22:25:09.382Z,-1.30
2018-03-25T22:27:37.442Z,-1.40
2018-03-25T22:30:07.415Z,-1.50
2018-03-25T22:32:36.418Z,-1.50
2018-03-25T22:35:08.386Z,-1.40
2018-03-25T22:37:44.569Z,-1.40
2018-03-25T22:40:24.670Z,-1.50
2018-03-25T22:42:57.662Z,-1.40
2018-03-25T22:45:29.450Z,-1.50
2018-03-25T22:48:00.194Z,-1.60
2018-03-25T22:50:30.202Z,-1.60
2018-03-25T22:53:01.958Z,-1.60
2018-03-25T22:55:35.650Z,-1.70
2018-03-25T22:58:06.418Z,-1.60
2018-03-25T23:00:34.458Z,-1.60
2018-03-25T23:13:28.183Z,-1.30
2018-03-25T23:16:05.002Z,-1.40
2018-03-25T23:18:39.179Z,-1.50
2018-03-25T23:21:09.009Z,-1.40
2018-03-25T23:23:38.146Z,-1.50
2018-03-25T23:26:06.217Z,-1.50
2018-03-25T23:28:35.257Z,-1.50
2018-03-25T23:31:08.545Z,-1.80
2018-03-25T23:33:38.553Z,-1.80
2018-03-25T23:36:07.425Z,-1.90
2018-03-25T23:38:41.177Z,-2.00
2018-03-25T23:41:14.309Z,-1.90
2018-03-25T23:43:46.761Z,-1.50
2018-03-25T23:46:15.125Z,-1.40
2018-03-25T23:48:47.145Z,-1.60
2018-03-25T23:51:17.097Z,-1.60
2018-03-25T23:53:51.790Z,-1.50
2018-03-25T23:56:32.072Z,-1.60
2018-03-25T23:59:00.325Z,-1.60
